Orr, North Dakota
Current Conditions -  °F | °C
As of 2:58 AM on Monday 24 Nov 2014 (Local Time) from KRDR Reporting Station
Overcast Overcast  
Wind Chill: -8°   Ceiling: 700
Heat Index: 11°   Visibility: 10mi
Dew Point:   Wind: 23mph
Humidity: 83%   Direction: 360°N
Pressure: 29.63"   Gusts: 33mph
Location:  48.1078°N, 97.7089°W
Report Text: KRDR 240858Z AUTO 36020G29KT 10SM BKN007 OVC011 M11/M14 A2963 RMK AO2 PK WND 34029/54 SNB0812E0836B0838E0849 BKN V OVC SLP054 P0000 60000 T11141137 53007
Loading
Personal Weather Stations






























Interactive Weather Map New forecast layout! Learn more

10-Day Weather Forecast

Advertisements
Track Severe Weather on mobile